Portada
METAR-TAF:

METAR-TAF

Aeroports :

Aeroport Internacional de Dubai

Dubai, Emirats Àrabs Units

latitud: 25-15-10N, longitud: 055-21-52E, altitud: 8 m

Observació

L'informe es va fer fa 21 minuts, a les 00:00 UTC
Vent 4 kt del Sud/Sud-Est, variant entre Est i Sud/Sud-Oest
Temperatura 15°C
Humitat 72%
Pressió 1019 hPa
Visibilitat 10 km o més
Escasses núvols a una alçada de 4000 ft

METAR: OMDB 280000Z 16004KT 100V200 9999 FEW040 15/10 Q1019 NOSIG

Hora: 04:21 (00:21 UTC)

Pronòstic

L'informe es va fer fa 1 hora i 23 minuts, a les 22:58 UTC
Pronòstic vàlid del 28 a les 00 UTC al 29 a les 06 UTC
Vent 7 kt del Sud
Visibilitat: 8000 m
Escasses núvols a una alçada de 4000 ft
Evolucionant progressivament
l' 28 a les 09 UTC al 28 a les 11 UTC
Vent 10 kt del Nord-Oest
Evolucionant progressivament
l' 28 a les 16 UTC al 28 a les 18 UTC
Vent 5 kt del Est/Nord-Est

TAF: OMDB 272258Z 2800/2906 17007KT 8000 FEW040 BECMG 2809/2811 32010KT BECMG 2816/2818 06005KT

Observacions i pronòstics meteorològics de més de 4000 aeroports (METAR i TAF).

Les estacions disponibles són els punts grocs i vermells al mapa.

Posi el ratolí al punt desitjat per veure el nom de l'estació.

Feu clic per veure les observacions i els pronòstics meteorològics.

Per canviar el mapa: feu clic els botons verds amb una creu de color negre per apropar; al botó verd amb un guió per allunyar la imatge; o en les fletxes verdes per a mapes adjacents.


METAR-TAF: